createdAt,value
2022-08-21T00:00:19.873Z,939.4
2022-08-21T00:01:20.804Z,939.35
2022-08-21T00:02:21.726Z,939.28
2022-08-21T00:03:22.172Z,939.29
2022-08-21T00:04:22.720Z,939.34
2022-08-21T00:05:28.287Z,939.27
2022-08-21T00:06:29.201Z,939.29
2022-08-21T00:07:30.103Z,939.34
2022-08-21T00:08:31.019Z,939.31
2022-08-21T00:09:31.213Z,939.25
2022-08-21T00:10:31.747Z,939.25
2022-08-21T00:11:31.966Z,939.23
2022-08-21T00:12:32.884Z,939.28
2022-08-21T00:13:33.523Z,939.25
2022-08-21T00:14:34.467Z,939.25
2022-08-21T00:15:35.461Z,939.27
2022-08-21T00:16:36.309Z,939.26
2022-08-21T00:17:36.571Z,939.26
2022-08-21T00:18:37.485Z,939.23
2022-08-21T00:19:37.701Z,939.22
2022-08-21T00:20:38.622Z,939.26
2022-08-21T00:21:39.535Z,939.24
2022-08-21T00:22:40.044Z,939.24
2022-08-21T00:23:41.014Z,939.27
2022-08-21T00:24:41.642Z,939.25
2022-08-21T00:25:42.366Z,939.25
2022-08-21T00:26:42.581Z,939.25
2022-08-21T00:27:43.076Z,939.31
2022-08-21T00:28:43.692Z,939.3
2022-08-21T00:29:44.362Z,939.27
2022-08-21T00:30:44.559Z,939.3
2022-08-21T00:31:44.774Z,939.29
2022-08-21T00:32:45.688Z,939.29
2022-08-21T00:33:46.464Z,939.26
2022-08-21T00:34:47.156Z,939.26
2022-08-21T00:35:47.859Z,939.23
2022-08-21T00:36:48.801Z,939.21
2022-08-21T00:37:49.718Z,939.21
2022-08-21T00:38:50.338Z,939.23
2022-08-21T00:39:50.965Z,939.16
2022-08-21T00:40:51.879Z,939.14
2022-08-21T00:41:52.640Z,939.21
2022-08-21T00:42:53.942Z,939.26
2022-08-21T00:43:54.279Z,939.26
2022-08-21T00:44:54.503Z,939.25
2022-08-21T00:45:54.799Z,939.21
2022-08-21T00:46:55.418Z,939.27
2022-08-21T00:47:55.612Z,939.28
2022-08-21T00:48:57.321Z,939.29
2022-08-21T00:49:56.900Z,939.26
2022-08-21T00:50:57.631Z,939.28
2022-08-21T00:51:58.540Z,939.31
2022-08-21T00:52:58.998Z,939.28
2022-08-21T00:53:59.752Z,939.28
2022-08-21T00:55:00.362Z,939.26
2022-08-21T00:56:00.769Z,939.25
2022-08-21T00:57:01.675Z,939.2
2022-08-21T00:58:02.306Z,939.26
2022-08-21T00:59:02.715Z,939.23
2022-08-21T01:00:03.335Z,939.24
2022-08-21T01:01:08.138Z,939.18
2022-08-21T01:02:04.459Z,939.21
2022-08-21T01:03:06.204Z,939.21
2022-08-21T01:04:06.143Z,939.18
2022-08-21T01:05:06.333Z,939.17
2022-08-21T01:06:07.342Z,939.17
2022-08-21T01:07:07.965Z,939.09
2022-08-21T01:08:08.105Z,939.13
2022-08-21T01:09:08.747Z,939.06
2022-08-21T01:10:09.090Z,939.06
2022-08-21T01:11:09.364Z,939.07
2022-08-21T01:12:10.263Z,939.09
2022-08-21T01:13:11.323Z,939.13
2022-08-21T01:14:11.643Z,939.12
2022-08-21T01:15:12.566Z,939.05
2022-08-21T01:16:13.549Z,939.08
2022-08-21T01:17:14.447Z,939.08
2022-08-21T01:18:14.649Z,939.07
2022-08-21T01:19:15.549Z,939.04
2022-08-21T01:20:16.042Z,939.07
2022-08-21T01:21:16.550Z,939.05
2022-08-21T01:22:16.731Z,939.03
2022-08-21T01:23:16.941Z,939.07
2022-08-21T01:24:17.876Z,939.08
2022-08-21T01:25:18.799Z,939.07
2022-08-21T01:26:19.495Z,939.05
2022-08-21T01:27:19.895Z,939.07
2022-08-21T01:28:20.093Z,939.1
2022-08-21T01:29:20.990Z,939.06
2022-08-21T01:30:21.903Z,939.06
2022-08-21T01:31:24.741Z,939.06
2022-08-21T01:32:23.069Z,939.05
2022-08-21T01:33:23.965Z,939.03
2022-08-21T01:34:24.585Z,939.05
2022-08-21T01:35:25.527Z,939.03
2022-08-21T01:36:25.946Z,939.05
2022-08-21T01:37:26.141Z,939
2022-08-21T01:38:26.749Z,939
2022-08-21T01:39:27.785Z,939.02
2022-08-21T01:40:28.611Z,939.03
2022-08-21T01:41:28.830Z,939.02
2022-08-21T01:42:29.020Z,939.02
2022-08-21T01:43:32.705Z,938.99
2022-08-21T01:44:30.858Z,939.01
2022-08-21T01:45:31.776Z,939.02
2022-08-21T01:46:32.786Z,939.05
2022-08-21T01:47:33.692Z,939.06
2022-08-21T01:48:33.884Z,939.02
2022-08-21T01:49:34.095Z,939
2022-08-21T01:50:34.289Z,939.02
2022-08-21T01:51:35.223Z,939.03
2022-08-21T01:52:35.431Z,939
2022-08-21T01:53:35.915Z,939
2022-08-21T01:54:36.103Z,939
2022-08-21T01:55:36.302Z,938.98
2022-08-21T01:56:36.717Z,938.99
2022-08-21T01:57:36.926Z,938.98
2022-08-21T01:58:37.120Z,938.99
2022-08-21T01:59:37.340Z,939.01
2022-08-21T02:00:37.561Z,938.96
2022-08-21T02:01:37.830Z,938.92
2022-08-21T02:02:38.324Z,938.97
2022-08-21T02:03:39.376Z,939.02
2022-08-21T02:04:39.572Z,938.99
2022-08-21T02:05:40.345Z,938.91
2022-08-21T02:06:41.348Z,938.86
2022-08-21T02:07:41.568Z,938.95
2022-08-21T02:08:42.489Z,938.97
2022-08-21T02:09:43.562Z,938.9
2022-08-21T02:10:44.158Z,938.84
2022-08-21T02:11:44.485Z,938.81
2022-08-21T02:12:45.410Z,938.84
2022-08-21T02:13:46.142Z,938.83
2022-08-21T02:14:47.069Z,938.86
2022-08-21T02:15:47.284Z,938.82
2022-08-21T02:16:48.151Z,938.82
2022-08-21T02:17:48.883Z,938.78
2022-08-21T02:18:49.515Z,938.75
2022-08-21T02:19:50.007Z,938.81
2022-08-21T02:20:53.669Z,938.83
2022-08-21T02:21:51.484Z,938.82
2022-08-21T02:22:52.402Z,938.77
2022-08-21T02:23:52.774Z,938.81
2022-08-21T02:24:54.230Z,938.77
2022-08-21T02:25:53.860Z,938.78
2022-08-21T02:26:54.514Z,938.77
2022-08-21T02:27:55.218Z,938.78
2022-08-21T02:28:55.408Z,938.8
2022-08-21T02:29:56.021Z,938.78
2022-08-21T02:30:56.520Z,938.79
2022-08-21T02:31:57.150Z,938.78
2022-08-21T02:32:58.295Z,938.77
2022-08-21T02:33:58.533Z,938.81
2022-08-21T02:34:59.148Z,938.79
2022-08-21T02:35:59.340Z,938.8
2022-08-21T02:37:00.778Z,938.84
2022-08-21T02:38:00.965Z,938.77
2022-08-21T02:39:01.458Z,938.81
2022-08-21T02:40:02.113Z,938.84
2022-08-21T02:41:03.101Z,938.84
2022-08-21T02:42:03.297Z,938.82
2022-08-21T02:43:03.509Z,938.81
2022-08-21T02:44:03.884Z,938.79
2022-08-21T02:45:04.798Z,938.83
2022-08-21T02:46:05.713Z,938.8
2022-08-21T02:47:06.783Z,938.79
2022-08-21T02:48:07.100Z,938.75
2022-08-21T02:49:07.694Z,938.76
2022-08-21T02:50:08.315Z,938.77
2022-08-21T02:51:08.852Z,938.77
2022-08-21T02:52:09.471Z,938.8
2022-08-21T02:53:10.384Z,938.79
2022-08-21T02:54:10.581Z,938.81
2022-08-21T02:55:11.479Z,938.79
2022-08-21T02:56:12.095Z,938.8
2022-08-21T02:57:13.073Z,938.81
2022-08-21T02:58:13.289Z,938.79
2022-08-21T02:59:13.499Z,938.79
2022-08-21T03:00:14.416Z,938.81
2022-08-21T03:01:14.706Z,938.76
2022-08-21T03:02:15.497Z,938.78
2022-08-21T03:03:15.849Z,938.77
2022-08-21T03:04:16.041Z,938.79
2022-08-21T03:05:16.957Z,938.83
2022-08-21T03:06:17.275Z,938.77
2022-08-21T03:07:17.905Z,938.76
2022-08-21T03:08:18.223Z,938.77
2022-08-21T03:09:19.234Z,938.78
2022-08-21T03:10:20.125Z,938.78
2022-08-21T03:11:20.337Z,938.77
2022-08-21T03:12:20.528Z,938.76
2022-08-21T03:13:20.990Z,938.76
2022-08-21T03:14:21.486Z,938.79
2022-08-21T03:15:22.403Z,938.8
2022-08-21T03:16:22.538Z,938.8
2022-08-21T03:17:29.660Z,938.78
2022-08-21T03:18:23.413Z,938.74
2022-08-21T03:19:23.766Z,938.75
2022-08-21T03:20:24.383Z,938.8
2022-08-21T03:21:24.582Z,938.8
2022-08-21T03:22:24.785Z,938.78
2022-08-21T03:23:25.112Z,938.79
2022-08-21T03:24:25.994Z,938.78
2022-08-21T03:25:39.494Z,938.78
2022-08-21T03:26:28.034Z,938.83
2022-08-21T03:27:28.414Z,938.78
2022-08-21T03:28:28.964Z,938.78
2022-08-21T03:29:29.604Z,938.77
2022-08-21T03:30:30.222Z,938.79
2022-08-21T03:31:31.137Z,938.75
2022-08-21T03:32:31.759Z,938.78
2022-08-21T03:33:32.656Z,938.8
2022-08-21T03:34:32.865Z,938.78
2022-08-21T03:35:33.499Z,938.77
2022-08-21T03:36:33.846Z,938.79
2022-08-21T03:37:34.561Z,938.82
2022-08-21T03:38:34.755Z,938.83
2022-08-21T03:39:35.283Z,938.81
2022-08-21T03:40:35.381Z,938.8
2022-08-21T03:41:36.000Z,938.8
2022-08-21T03:42:36.921Z,938.82
2022-08-21T03:43:37.417Z,938.81
2022-08-21T03:44:37.618Z,938.79
2022-08-21T03:45:38.264Z,938.77
2022-08-21T03:46:38.566Z,938.77
2022-08-21T03:47:38.840Z,938.77
2022-08-21T03:48:39.335Z,938.77
2022-08-21T03:49:39.552Z,938.77
2022-08-21T03:50:40.703Z,938.76
2022-08-21T03:51:40.124Z,938.79
2022-08-21T03:52:41.216Z,938.78
2022-08-21T03:53:41.560Z,938.77
2022-08-21T03:54:41.908Z,938.76
2022-08-21T03:55:42.108Z,938.79
2022-08-21T03:56:42.839Z,938.79
2022-08-21T03:57:43.171Z,938.74
2022-08-21T03:58:43.580Z,938.75
2022-08-21T03:59:43.893Z,938.77
2022-08-21T04:00:44.832Z,938.77
2022-08-21T04:01:45.045Z,938.79
2022-08-21T04:02:45.658Z,938.77
2022-08-21T04:03:46.094Z,938.77
2022-08-21T04:04:47.014Z,938.79
2022-08-21T04:05:47.512Z,938.79
2022-08-21T04:06:48.006Z,938.79
2022-08-21T04:07:48.726Z,938.8
2022-08-21T04:08:49.642Z,938.8
2022-08-21T04:09:50.540Z,938.81
2022-08-21T04:10:51.033Z,938.82
2022-08-21T04:11:51.526Z,938.83
2022-08-21T04:12:52.260Z,938.84
2022-08-21T04:13:52.352Z,938.81
2022-08-21T04:14:53.396Z,938.84
2022-08-21T04:15:54.475Z,938.85
2022-08-21T04:16:55.255Z,938.84
2022-08-21T04:17:55.977Z,938.84
2022-08-21T04:18:56.604Z,938.85
2022-08-21T04:19:57.373Z,938.86
2022-08-21T04:20:57.587Z,938.84
2022-08-21T04:21:58.490Z,938.87
2022-08-21T04:22:58.958Z,938.83
2022-08-21T04:23:59.661Z,938.85
2022-08-21T04:25:00.579Z,938.87
2022-08-21T04:26:01.491Z,938.84
2022-08-21T04:27:02.409Z,938.87
2022-08-21T04:28:02.688Z,938.82
2022-08-21T04:29:03.449Z,938.88
2022-08-21T04:30:04.179Z,938.83
2022-08-21T04:31:04.662Z,938.84
2022-08-21T04:32:04.876Z,938.87
2022-08-21T04:33:05.073Z,938.87
2022-08-21T04:34:05.698Z,938.89
2022-08-21T04:35:05.905Z,938.91
2022-08-21T04:36:06.542Z,938.92
2022-08-21T04:37:06.667Z,938.92
2022-08-21T04:38:07.089Z,938.92
2022-08-21T04:39:07.718Z,938.97
2022-08-21T04:40:07.957Z,938.94
2022-08-21T04:41:08.952Z,938.94
2022-08-21T04:42:09.170Z,938.97
2022-08-21T04:43:09.365Z,938.96
2022-08-21T04:44:10.289Z,938.97
2022-08-21T04:45:10.482Z,938.96
2022-08-21T04:46:13.482Z,938.98
2022-08-21T04:47:11.496Z,938.97
2022-08-21T04:48:23.665Z,938.96
2022-08-21T04:49:24.259Z,938.99
2022-08-21T04:50:24.458Z,939.03
2022-08-21T04:51:24.801Z,939.08
2022-08-21T04:52:25.850Z,939.06
2022-08-21T04:53:26.063Z,939.05
2022-08-21T04:54:26.277Z,939.08
2022-08-21T04:55:27.272Z,939.07
2022-08-21T04:56:27.479Z,939.06
2022-08-21T04:57:34.273Z,939.09
2022-08-21T04:58:36.500Z,939.08
2022-08-21T04:59:37.441Z,939.08
2022-08-21T05:00:38.068Z,939.1
2022-08-21T05:01:38.305Z,939.11
2022-08-21T05:02:38.644Z,939.08
2022-08-21T05:03:39.314Z,939.1
2022-08-21T05:04:40.380Z,939.09
2022-08-21T05:05:41.395Z,939.07
2022-08-21T05:06:42.014Z,939.12
2022-08-21T05:07:43.126Z,939.11
2022-08-21T05:08:42.342Z,939.15
2022-08-21T05:09:42.799Z,939.14
2022-08-21T05:10:43.717Z,939.12
2022-08-21T05:11:43.893Z,939.1
2022-08-21T05:12:44.110Z,939.09
2022-08-21T05:13:45.110Z,939.12
2022-08-21T05:14:45.222Z,939.11
2022-08-21T05:15:46.136Z,939.11
2022-08-21T05:16:46.326Z,939.07
2022-08-21T05:17:52.475Z,939.06
2022-08-21T05:18:48.665Z,939.08
2022-08-21T05:19:48.861Z,939.05
2022-08-21T05:20:49.780Z,939.09
2022-08-21T05:21:50.676Z,939.09
2022-08-21T05:22:51.611Z,939.11
2022-08-21T05:23:51.746Z,939.14
2022-08-21T05:24:52.404Z,939.12
2022-08-21T05:25:53.239Z,939.14
2022-08-21T05:26:53.805Z,939.15
2022-08-21T05:27:54.115Z,939.15
2022-08-21T05:28:55.112Z,939.2
2022-08-21T05:29:55.720Z,939.19
2022-08-21T05:30:56.298Z,939.2
2022-08-21T05:31:56.497Z,939.18
2022-08-21T05:32:57.529Z,939.21
2022-08-21T05:33:58.264Z,939.2
2022-08-21T05:34:58.695Z,939.17
2022-08-21T05:35:58.887Z,939.19
2022-08-21T05:36:59.087Z,939.21
2022-08-21T05:38:00.080Z,939.21
2022-08-21T05:39:00.778Z,939.21
2022-08-21T05:40:04.886Z,939.21
2022-08-21T05:41:01.787Z,939.21
2022-08-21T05:42:02.247Z,939.2
2022-08-21T05:43:02.711Z,939.23
2022-08-21T05:44:03.523Z,939.23
2022-08-21T05:45:04.503Z,939.26
2022-08-21T05:46:04.898Z,939.22
2022-08-21T05:47:05.823Z,939.21
2022-08-21T05:48:06.143Z,939.24
2022-08-21T05:49:06.874Z,939.26
2022-08-21T05:50:07.173Z,939.28
2022-08-21T05:51:07.730Z,939.24
2022-08-21T05:52:07.930Z,939.22
2022-08-21T05:53:08.847Z,939.24
2022-08-21T05:54:09.469Z,939.24
2022-08-21T05:55:10.120Z,939.25
2022-08-21T05:56:11.024Z,939.23
2022-08-21T05:57:11.238Z,939.22
2022-08-21T05:58:11.481Z,939.2
2022-08-21T05:59:12.231Z,939.22
2022-08-21T06:00:12.826Z,939.22
2022-08-21T06:01:13.075Z,939.21
2022-08-21T06:02:13.123Z,939.23
2022-08-21T06:03:13.624Z,939.24
2022-08-21T06:04:14.540Z,939.25
2022-08-21T06:05:14.743Z,939.21
2022-08-21T06:06:15.039Z,939.2
2022-08-21T06:07:15.371Z,939.19
2022-08-21T06:08:16.272Z,939.18
2022-08-21T06:09:17.291Z,939.2
2022-08-21T06:10:17.491Z,939.2
2022-08-21T06:11:19.479Z,939.16
2022-08-21T06:12:18.823Z,939.19
2022-08-21T06:13:19.287Z,939.22
2022-08-21T06:14:20.283Z,939.18
2022-08-21T06:15:21.187Z,939.23
2022-08-21T06:16:21.829Z,939.23
2022-08-21T06:17:22.024Z,939.21
2022-08-21T06:18:22.216Z,939.21
2022-08-21T06:19:22.643Z,939.21
2022-08-21T06:20:22.843Z,939.23
2022-08-21T06:21:23.551Z,939.23
2022-08-21T06:22:24.470Z,939.22
2022-08-21T06:23:32.923Z,939.22
2022-08-21T06:24:25.807Z,939.25
2022-08-21T06:25:26.861Z,939.21
2022-08-21T06:26:27.766Z,939.2
2022-08-21T06:27:28.670Z,939.2
2022-08-21T06:28:29.594Z,939.21
2022-08-21T06:29:29.880Z,939.22
2022-08-21T06:30:30.579Z,939.26
2022-08-21T06:31:30.792Z,939.21
2022-08-21T06:32:31.183Z,939.25
2022-08-21T06:33:32.768Z,939.22
2022-08-21T06:34:31.811Z,939.26
2022-08-21T06:35:32.318Z,939.23
2022-08-21T06:36:33.324Z,939.25
2022-08-21T06:37:34.269Z,939.26
2022-08-21T06:38:34.471Z,939.23
2022-08-21T06:39:50.441Z,939.22
2022-08-21T06:40:50.541Z,939.21
2022-08-21T06:41:50.967Z,939.21
2022-08-21T06:42:51.971Z,939.19
2022-08-21T06:43:52.690Z,939.19
2022-08-21T06:44:53.187Z,939.21
2022-08-21T06:45:53.386Z,939.22
2022-08-21T06:46:54.025Z,939.2
2022-08-21T06:47:54.223Z,939.23
2022-08-21T06:48:55.298Z,939.23
2022-08-21T06:49:55.942Z,939.23
2022-08-21T06:50:56.137Z,939.24
2022-08-21T06:51:56.340Z,939.21
2022-08-21T06:52:56.565Z,939.18
2022-08-21T06:53:57.663Z,939.19
2022-08-21T06:54:57.858Z,939.15
2022-08-21T06:55:58.612Z,939.17
2022-08-21T06:56:59.237Z,939.2
2022-08-21T06:57:59.459Z,939.17
2022-08-21T06:59:00.372Z,939.18
2022-08-21T07:00:01.359Z,939.18
2022-08-21T07:01:02.352Z,939.16
2022-08-21T07:02:03.239Z,939.23
2022-08-21T07:03:03.739Z,939.22
2022-08-21T07:04:03.944Z,939.22
2022-08-21T07:05:10.172Z,939.21
2022-08-21T07:06:05.431Z,939.21
2022-08-21T07:07:05.925Z,939.26
2022-08-21T07:08:06.428Z,939.24
2022-08-21T07:09:07.047Z,939.21
2022-08-21T07:10:07.538Z,939.2
2022-08-21T07:11:08.176Z,939.19
2022-08-21T07:12:09.078Z,939.18
2022-08-21T07:13:09.713Z,939.18
2022-08-21T07:14:10.334Z,939.13
2022-08-21T07:15:11.266Z,939.17
2022-08-21T07:16:11.885Z,939.18
2022-08-21T07:17:12.504Z,939.17
2022-08-21T07:18:12.709Z,939.18
2022-08-21T07:19:13.633Z,939.16
2022-08-21T07:20:14.340Z,939.2
2022-08-21T07:21:14.564Z,939.15
2022-08-21T07:22:15.311Z,939.13
2022-08-21T07:23:15.532Z,939.16
2022-08-21T07:24:15.752Z,939.12
2022-08-21T07:25:15.956Z,939.13
2022-08-21T07:26:16.861Z,939.15
2022-08-21T07:27:17.762Z,939.11
2022-08-21T07:28:18.112Z,939.09
2022-08-21T07:29:18.336Z,939.09
2022-08-21T07:30:19.366Z,939.06
2022-08-21T07:31:19.565Z,939.06
2022-08-21T07:32:21.426Z,939.06
2022-08-21T07:33:20.430Z,939.05
2022-08-21T07:34:20.933Z,939.08
2022-08-21T07:35:21.849Z,939.06
2022-08-21T07:36:22.050Z,939.07
2022-08-21T07:37:22.938Z,939.08
2022-08-21T07:38:23.174Z,939.08
2022-08-21T07:39:23.819Z,939.03
2022-08-21T07:40:24.612Z,939.07
2022-08-21T07:41:25.317Z,939.05
2022-08-21T07:42:26.215Z,939
2022-08-21T07:43:26.504Z,939.06
2022-08-21T07:44:27.500Z,939
2022-08-21T07:45:27.726Z,938.98
2022-08-21T07:46:28.651Z,938.99
2022-08-21T07:47:41.321Z,938.99
2022-08-21T07:48:29.117Z,939.01
2022-08-21T07:49:29.342Z,938.94
2022-08-21T07:50:29.528Z,938.94
2022-08-21T07:51:30.179Z,938.93
2022-08-21T07:52:31.890Z,938.96
2022-08-21T07:53:31.642Z,938.92
2022-08-21T07:54:33.778Z,938.9
2022-08-21T07:55:32.852Z,938.95
2022-08-21T07:56:33.803Z,938.93
2022-08-21T07:57:34.009Z,938.91
2022-08-21T07:58:34.638Z,938.89
2022-08-21T07:59:34.843Z,938.9
2022-08-21T08:00:35.943Z,938.88
2022-08-21T08:01:36.686Z,938.9
2022-08-21T08:02:37.474Z,938.89
2022-08-21T08:03:37.975Z,938.86
2022-08-21T08:04:38.177Z,938.87
2022-08-21T08:05:38.294Z,938.85
2022-08-21T08:06:38.798Z,938.88
2022-08-21T08:07:39.298Z,938.87
2022-08-21T08:08:39.789Z,938.87
2022-08-21T08:09:40.436Z,938.88
2022-08-21T08:10:41.027Z,938.87
2022-08-21T08:11:41.491Z,938.83
2022-08-21T08:12:42.424Z,938.82
2022-08-21T08:13:43.280Z,938.81
2022-08-21T08:14:44.210Z,938.82
2022-08-21T08:15:45.233Z,938.81
2022-08-21T08:16:45.737Z,938.86
2022-08-21T08:17:46.766Z,938.89
2022-08-21T08:18:47.368Z,938.84
2022-08-21T08:19:48.288Z,938.87
2022-08-21T08:20:49.332Z,938.83
2022-08-21T08:21:49.550Z,938.84
2022-08-21T08:22:50.280Z,938.87
2022-08-21T08:23:50.851Z,938.86
2022-08-21T08:24:51.154Z,938.89
2022-08-21T08:25:52.892Z,938.84
2022-08-21T08:26:53.652Z,938.84
2022-08-21T08:27:52.619Z,938.87
2022-08-21T08:28:53.236Z,938.85
2022-08-21T08:29:53.742Z,938.88
2022-08-21T08:30:53.865Z,938.83
2022-08-21T08:31:54.808Z,938.78
2022-08-21T08:32:55.494Z,938.82
2022-08-21T08:33:55.856Z,938.85
2022-08-21T08:34:56.959Z,938.88
2022-08-21T08:35:57.350Z,938.83
2022-08-21T08:36:58.403Z,938.82
2022-08-21T08:38:59.136Z,938.8
2022-08-21T08:39:59.479Z,938.79
2022-08-21T08:41:00.305Z,938.82
2022-08-21T08:42:00.516Z,938.81
2022-08-21T08:43:01.434Z,938.79
2022-08-21T08:44:02.227Z,938.79
2022-08-21T08:45:03.155Z,938.81
2022-08-21T08:46:04.083Z,938.81
2022-08-21T08:47:04.585Z,938.82
2022-08-21T08:48:04.792Z,938.9
2022-08-21T08:49:04.909Z,938.91
2022-08-21T08:51:05.687Z,938.99
2022-08-21T08:52:06.654Z,938.97
2022-08-21T08:53:07.587Z,938.97
2022-08-21T08:54:08.523Z,938.97
2022-08-21T08:55:09.037Z,938.99
2022-08-21T08:56:09.414Z,939.03
2022-08-21T08:57:10.364Z,938.98
2022-08-21T08:58:10.598Z,938.99
2022-08-21T08:59:10.829Z,939.06
2022-08-21T09:00:11.166Z,939.02
2022-08-21T09:01:11.444Z,939.07
2022-08-21T09:02:12.211Z,939.09
2022-08-21T09:03:12.399Z,939.07
2022-08-21T09:04:12.614Z,939.08
2022-08-21T09:05:13.553Z,939.08
2022-08-21T09:06:13.764Z,939.08
2022-08-21T09:07:13.979Z,939.08
2022-08-21T09:08:18.198Z,939.03
2022-08-21T09:09:15.167Z,939.06
2022-08-21T09:10:15.909Z,939.05
2022-08-21T09:11:16.652Z,939.1
2022-08-21T09:12:17.284Z,939.08
2022-08-21T09:13:17.527Z,939.08
2022-08-21T09:14:17.842Z,939.07
2022-08-21T09:15:18.877Z,939.04
2022-08-21T09:16:19.918Z,939.04
2022-08-21T09:17:20.863Z,939.07
2022-08-21T09:18:21.083Z,939.1
2022-08-21T09:19:24.851Z,939.04
2022-08-21T09:20:21.825Z,939.03
2022-08-21T09:21:22.816Z,939
2022-08-21T09:22:23.334Z,939.03
2022-08-21T09:23:23.570Z,939.02
2022-08-21T09:24:23.831Z,939.04
2022-08-21T09:25:24.342Z,939.08
2022-08-21T09:26:24.592Z,939.04
2022-08-21T09:27:25.538Z,939.03
2022-08-21T09:28:26.529Z,939.03
2022-08-21T09:29:27.465Z,939.02
2022-08-21T09:30:27.693Z,938.97
2022-08-21T09:31:28.428Z,939
2022-08-21T09:32:32.494Z,938.99
2022-08-21T09:33:29.828Z,938.99
2022-08-21T09:34:30.758Z,939.02
2022-08-21T09:35:31.682Z,939.03
2022-08-21T09:36:32.328Z,939.03
2022-08-21T09:37:32.561Z,939.03
2022-08-21T09:38:33.073Z,939.04
2022-08-21T09:39:39.954Z,939.05
2022-08-21T09:40:34.144Z,939.04
2022-08-21T09:41:34.642Z,939.02
2022-08-21T09:42:35.575Z,939
2022-08-21T09:43:36.578Z,938.98
2022-08-21T09:44:37.516Z,938.94
2022-08-21T09:45:38.432Z,939
2022-08-21T09:46:39.373Z,938.98
2022-08-21T09:47:40.409Z,939.02
2022-08-21T09:48:41.364Z,939.03
2022-08-21T09:49:41.665Z,939.02
2022-08-21T09:50:42.298Z,939.01
2022-08-21T09:51:42.876Z,938.97
2022-08-21T09:52:43.113Z,938.96
2022-08-21T09:53:43.759Z,938.98
2022-08-21T09:54:44.677Z,938.98
2022-08-21T09:55:45.190Z,939
2022-08-21T09:56:45.501Z,938.99
2022-08-21T09:57:46.751Z,939.02
2022-08-21T09:58:46.396Z,939.04
2022-08-21T09:59:47.195Z,939.01
2022-08-21T10:00:48.163Z,938.99
2022-08-21T10:01:48.598Z,938.99
2022-08-21T10:02:48.814Z,938.99
2022-08-21T10:03:49.561Z,938.93
2022-08-21T10:04:50.071Z,938.93
2022-08-21T10:05:51.187Z,938.95
2022-08-21T10:06:52.043Z,938.96
2022-08-21T10:07:52.604Z,938.94
2022-08-21T10:08:52.821Z,938.91
2022-08-21T10:09:53.684Z,938.93
2022-08-21T10:10:54.425Z,938.92
2022-08-21T10:11:54.172Z,938.91
2022-08-21T10:12:54.978Z,938.92
2022-08-21T10:13:55.344Z,938.87
2022-08-21T10:14:56.359Z,938.87
2022-08-21T10:15:57.234Z,938.84
2022-08-21T10:16:57.576Z,938.85
2022-08-21T10:17:58.516Z,938.8
2022-08-21T10:18:58.828Z,938.81
2022-08-21T10:19:59.449Z,938.82
2022-08-21T10:20:59.666Z,938.78
2022-08-21T10:22:00.333Z,938.79
2022-08-21T10:23:00.545Z,938.8
2022-08-21T10:24:00.994Z,938.77
2022-08-21T10:25:01.729Z,938.75
2022-08-21T10:26:05.476Z,938.77
2022-08-21T10:27:03.122Z,938.81
2022-08-21T10:28:03.361Z,938.81
2022-08-21T10:29:04.120Z,938.76
2022-08-21T10:30:04.757Z,938.79
2022-08-21T10:31:05.395Z,938.79
2022-08-21T10:32:10.952Z,938.74
2022-08-21T10:33:07.172Z,938.77
2022-08-21T10:34:08.110Z,938.77
2022-08-21T10:35:09.053Z,938.72
2022-08-21T10:36:09.967Z,938.72
2022-08-21T10:37:11.120Z,938.74
2022-08-21T10:38:19.717Z,938.74
2022-08-21T10:39:41.668Z,938.77
2022-08-21T10:40:42.193Z,938.72
2022-08-21T10:41:42.530Z,938.74
2022-08-21T10:42:43.427Z,938.71
2022-08-21T10:43:43.596Z,938.71
2022-08-21T10:44:44.519Z,938.74
2022-08-21T10:45:44.873Z,938.73
2022-08-21T10:46:45.807Z,938.71
2022-08-21T10:47:46.045Z,938.72
2022-08-21T10:48:46.338Z,938.69
2022-08-21T10:49:47.202Z,938.69
2022-08-21T10:50:47.560Z,938.72
2022-08-21T10:51:47.774Z,938.72
2022-08-21T10:52:48.475Z,938.71
2022-08-21T10:53:48.841Z,938.68
2022-08-21T10:54:49.356Z,938.68
2022-08-21T10:55:50.295Z,938.71
2022-08-21T10:56:51.231Z,938.7
2022-08-21T10:57:51.597Z,938.71
2022-08-21T10:58:52.545Z,938.7
2022-08-21T10:59:53.481Z,938.69
2022-08-21T11:00:54.540Z,938.69
2022-08-21T11:01:55.207Z,938.64
2022-08-21T11:02:56.228Z,938.67
2022-08-21T11:03:57.185Z,938.65
2022-08-21T11:04:57.860Z,938.6
2022-08-21T11:05:58.778Z,938.63
2022-08-21T11:06:59.415Z,938.63
2022-08-21T11:08:01.090Z,938.64
2022-08-21T11:09:00.362Z,938.59
2022-08-21T11:10:00.658Z,938.55
2022-08-21T11:11:01.480Z,938.55
2022-08-21T11:12:10.751Z,938.55
2022-08-21T11:13:03.757Z,938.57
2022-08-21T11:14:04.534Z,938.55
2022-08-21T11:15:05.173Z,938.55
2022-08-21T11:16:06.518Z,938.54
2022-08-21T11:17:05.889Z,938.55
2022-08-21T11:18:07.052Z,938.56
2022-08-21T11:19:07.375Z,938.52
2022-08-21T11:20:08.319Z,938.53
2022-08-21T11:21:09.374Z,938.51
2022-08-21T11:22:09.610Z,938.53
2022-08-21T11:23:10.989Z,938.5
2022-08-21T11:24:11.676Z,938.45
2022-08-21T11:25:12.596Z,938.51
2022-08-21T11:26:13.493Z,938.42
2022-08-21T11:27:13.960Z,938.38
2022-08-21T11:28:14.815Z,938.43
2022-08-21T11:29:14.768Z,938.45
2022-08-21T11:30:15.009Z,938.42
2022-08-21T11:31:15.280Z,938.45
2022-08-21T11:32:16.195Z,938.42
2022-08-21T11:33:16.611Z,938.36
2022-08-21T11:34:16.849Z,938.42
2022-08-21T11:35:17.505Z,938.41
2022-08-21T11:36:17.720Z,938.37
2022-08-21T11:37:18.058Z,938.37
2022-08-21T11:38:18.285Z,938.38
2022-08-21T11:39:19.172Z,938.39
2022-08-21T11:40:19.759Z,938.4
2022-08-21T11:41:20.101Z,938.36
2022-08-21T11:42:20.319Z,938.34
2022-08-21T11:43:20.740Z,938.32
2022-08-21T11:44:21.254Z,938.33
2022-08-21T11:45:21.484Z,938.32
2022-08-21T11:46:22.567Z,938.29
2022-08-21T11:47:23.329Z,938.29
2022-08-21T11:48:23.981Z,938.28
2022-08-21T11:49:24.496Z,938.3
2022-08-21T11:50:29.870Z,938.31
2022-08-21T11:51:25.395Z,938.26
2022-08-21T11:52:26.306Z,938.29
2022-08-21T11:53:26.748Z,938.31
2022-08-21T11:54:26.979Z,938.23
2022-08-21T11:55:27.618Z,938.21
2022-08-21T11:56:28.133Z,938.24
2022-08-21T11:57:28.372Z,938.24
2022-08-21T11:58:28.603Z,938.25
2022-08-21T11:59:29.232Z,938.23
2022-08-21T12:00:30.320Z,938.21
2022-08-21T12:01:30.753Z,938.17
2022-08-21T12:02:31.030Z,938.15
2022-08-21T12:03:31.298Z,938.16
2022-08-21T12:04:32.129Z,938.14
2022-08-21T12:05:33.061Z,938.13
2022-08-21T12:06:33.999Z,938.13
2022-08-21T12:07:34.915Z,938.12
2022-08-21T12:08:35.134Z,938.07
2022-08-21T12:09:35.492Z,938.1
2022-08-21T12:10:36.442Z,938.11
2022-08-21T12:11:37.381Z,938.02
2022-08-21T12:12:37.672Z,938.05
2022-08-21T12:13:43.198Z,938.04
2022-08-21T12:14:43.408Z,937.99
2022-08-21T12:15:44.045Z,938.01
2022-08-21T12:16:44.686Z,938
2022-08-21T12:17:45.324Z,938
2022-08-21T12:18:46.330Z,938.01
2022-08-21T12:19:46.566Z,937.98
2022-08-21T12:20:50.290Z,937.97
2022-08-21T12:21:47.792Z,938
2022-08-21T12:22:48.494Z,937.98
2022-08-21T12:23:49.392Z,937.9
2022-08-21T12:24:49.666Z,937.93
2022-08-21T12:25:50.594Z,937.91
2022-08-21T12:26:51.105Z,937.93
2022-08-21T12:27:52.042Z,937.89
2022-08-21T12:28:52.977Z,937.89
2022-08-21T12:29:53.213Z,937.89
2022-08-21T12:30:57.547Z,937.87
2022-08-21T12:31:54.911Z,937.87
2022-08-21T12:32:55.885Z,937.89
2022-08-21T12:33:56.641Z,937.86
2022-08-21T12:34:56.870Z,937.89
2022-08-21T12:35:57.610Z,937.88
2022-08-21T12:36:58.112Z,937.9
2022-08-21T12:37:58.769Z,937.88
2022-08-21T12:38:59.703Z,937.87
2022-08-21T12:39:59.985Z,937.83
2022-08-21T12:41:00.434Z,937.82
2022-08-21T12:42:02.097Z,937.79